Time;durP1;ratioP1;P1;durP2;ratioP2;P2;SDS_P1;SDS_P2;PMS_P1;PMS_P2;Temp;Humidity;BMP_temperature;BMP_pressure;BME280_temperature;BME280_humidity;BME280_pressure;Samples;Min_cycle;Max_cycle;Signal;HPM_P1;HPM_P2
2021/10/01 00:00:47;;;;;;;1.55;0.73;;;;;;;19.56;54.22;101718.81;4743288;30;20047;-91
2021/10/01 00:03:13;;;;;;;1.23;0.60;;;;;;;19.56;54.14;101720.56;4745669;30;20032;-92
2021/10/01 00:05:39;;;;;;;1.23;0.60;;;;;;;19.56;54.15;101711.00;4748865;30;20066;-90
2021/10/01 00:08:05;;;;;;;1.20;0.60;;;;;;;19.56;53.94;101707.50;4728648;30;20554;-91
2021/10/01 00:10:31;;;;;;;1.15;0.70;;;;;;;19.55;54.32;101701.41;4773784;30;20040;-91
2021/10/01 00:12:56;;;;;;;1.02;0.50;;;;;;;19.55;54.17;101698.78;4757917;30;20031;-88
2021/10/01 00:15:22;;;;;;;0.98;0.50;;;;;;;19.57;53.93;101698.78;4728202;30;20036;-89
2021/10/01 00:17:47;;;;;;;1.00;0.57;;;;;;;19.55;54.00;101700.53;4742971;30;20400;-90
2021/10/01 00:20:13;;;;;;;1.00;0.60;;;;;;;19.55;54.06;101695.31;4742662;30;20078;-89
2021/10/01 00:22:39;;;;;;;2.15;0.63;;;;;;;19.55;53.95;101695.31;4742338;30;20040;-91
2021/10/01 00:25:05;;;;;;;0.98;0.50;;;;;;;19.56;54.22;101694.47;4742899;30;20530;-90
2021/10/01 00:27:30;;;;;;;1.67;0.52;;;;;;;19.55;54.08;101693.56;4773223;30;20032;-89
2021/10/01 00:29:56;;;;;;;2.13;0.60;;;;;;;19.55;54.06;101692.72;4757263;30;20594;-91
2021/10/01 00:32:21;;;;;;;1.45;0.70;;;;;;;19.54;54.17;101691.84;4757283;30;20049;-89
2021/10/01 00:34:49;;;;;;;0.98;0.55;;;;;;;19.55;53.97;101680.50;4742903;30;20031;-89
2021/10/01 00:37:15;;;;;;;0.90;0.50;;;;;;;19.55;54.16;101679.66;4742857;30;20031;-88
2021/10/01 00:39:41;;;;;;;1.25;0.60;;;;;;;19.55;54.10;101677.91;4742730;30;20463;-90
2021/10/01 00:42:06;;;;;;;0.65;0.50;;;;;;;19.53;54.21;101677.03;4742618;30;20047;-91
2021/10/01 00:44:32;;;;;;;1.52;0.60;;;;;;;19.54;54.23;101670.97;4742912;30;20039;-91
2021/10/01 00:46:57;;;;;;;1.35;0.60;;;;;;;19.52;54.01;101663.13;4742476;30;20484;-90
2021/10/01 00:49:22;;;;;;;0.95;0.60;;;;;;;19.52;53.82;101663.13;4742280;30;20036;-90
2021/10/01 00:51:51;;;;;;;1.10;0.70;;;;;;;19.52;53.89;101663.13;4742079;30;20032;-90
2021/10/01 00:54:18;;;;;;;1.05;0.50;;;;;;;19.53;54.04;101661.38;4756131;30;20032;-90
2021/10/01 00:56:43;;;;;;;0.52;0.50;;;;;;;19.53;54.29;101656.16;4757078;30;20063;-90
2021/10/01 00:59:09;;;;;;;1.95;0.60;;;;;;;19.54;54.21;101663.13;4742719;30;20059;-90
2021/10/01 01:01:35;;;;;;;1.65;0.60;;;;;;;19.53;53.64;101658.75;4744756;30;20055;-90
2021/10/01 01:04:04;;;;;;;1.42;0.68;;;;;;;19.52;54.23;101657.91;4745353;30;20081;-90
2021/10/01 01:16:17;;;;;;;1.92;0.65;;;;;;;19.53;54.24;101658.75;4774517;30;20062;-90
2021/10/01 01:18:47;;;;;;;0.73;0.60;;;;;;;19.50;54.39;101657.03;4756669;30;20066;-89
2021/10/01 01:21:33;;;;;;;1.33;0.60;;;;;;;19.53;54.24;101659.66;4756924;30;20043;-90
2021/10/01 01:24:33;;;;;;;1.05;0.55;;;;;;;19.52;54.04;101644.84;4754911;30;20051;-91
2021/10/01 01:33:45;;;;;;;1.48;0.60;;;;;;;19.50;54.11;101638.78;4773669;30;20059;-90
2021/10/01 01:36:13;;;;;;;1.23;0.60;;;;;;;19.51;54.27;101637.03;4757229;30;20036;-89
2021/10/01 01:38:44;;;;;;;1.20;0.70;;;;;;;19.51;54.25;101630.09;4772423;30;20024;-90
2021/10/01 01:41:11;;;;;;;0.80;0.40;;;;;;;19.52;54.11;101630.94;4756302;30;20043;-91
2021/10/01 01:43:38;;;;;;;1.08;0.50;;;;;;;19.51;54.27;101623.97;4756411;30;20144;-90
2021/10/01 01:46:04;;;;;;;1.70;0.57;;;;;;;19.50;54.28;101627.47;4756262;30;20035;-91
2021/10/01 01:48:31;;;;;;;0.63;0.40;;;;;;;19.49;54.14;101618.78;4741611;30;20560;-90
2021/10/01 01:50:58;;;;;;;1.05;0.57;;;;;;;19.50;54.10;101623.09;4756208;30;20107;-91
2021/10/01 01:53:25;;;;;;;1.20;0.50;;;;;;;19.49;54.25;101618.78;4726847;30;20364;-91
2021/10/01 01:55:51;;;;;;;1.58;0.70;;;;;;;19.49;54.49;101610.09;4741685;30;20176;-89
2021/10/01 01:58:17;;;;;;;1.13;0.60;;;;;;;19.49;54.24;101605.72;4756455;30;20032;-90
2021/10/01 02:00:44;;;;;;;0.95;0.50;;;;;;;19.49;54.21;101608.34;4726829;30;20035;-90
2021/10/01 02:03:10;;;;;;;0.93;0.50;;;;;;;19.50;54.21;101607.44;4727043;30;20035;-90
2021/10/01 02:05:36;;;;;;;1.88;0.50;;;;;;;19.50;54.20;101598.75;4741056;30;20480;-91
2021/10/01 02:08:03;;;;;;;0.95;0.50;;;;;;;19.47;54.16;101591.81;4756234;30;20040;-91
2021/10/01 02:10:29;;;;;;;0.68;0.55;;;;;;;19.49;54.34;101590.06;4759941;30;20031;-90
2021/10/01 02:12:58;;;;;;;0.98;0.50;;;;;;;19.49;54.17;101589.19;4773632;30;20031;-90
2021/10/01 02:15:25;;;;;;;0.85;0.40;;;;;;;19.47;54.11;101585.72;4771501;30;20031;-90
2021/10/01 02:17:56;;;;;;;0.82;0.50;;;;;;;19.48;54.22;101579.63;4770969;30;20040;-91
2021/10/01 02:20:22;;;;;;;1.05;0.50;;;;;;;19.48;54.20;101582.22;4763306;30;20027;-91
2021/10/01 02:22:48;;;;;;;1.83;0.68;;;;;;;19.48;54.38;101580.47;4744632;30;20101;-89
2021/10/01 02:28:04;;;;;;;1.15;0.50;;;;;;;19.49;54.12;101570.94;4760287;30;20105;-91
2021/10/01 02:30:31;;;;;;;0.75;0.50;;;;;;;19.48;54.42;101567.44;4755935;30;20204;-90
2021/10/01 02:33:02;;;;;;;0.68;0.45;;;;;;;19.48;54.37;101561.34;4755699;30;20090;-91
2021/10/01 02:35:27;;;;;;;1.30;0.60;;;;;;;19.47;54.30;101554.41;4755973;30;20032;-90
2021/10/01 02:37:53;;;;;;;0.77;0.38;;;;;;;19.48;54.27;101551.75;4728204;30;20093;-90
2021/10/01 02:40:19;;;;;;;1.55;0.60;;;;;;;19.46;54.24;101535.25;4755789;30;20066;-90
2021/10/01 02:42:45;;;;;;;1.10;0.43;;;;;;;19.45;54.24;101533.53;4741062;30;20040;-91
2021/10/01 02:45:10;;;;;;;1.65;0.68;;;;;;;19.46;54.37;101531.78;4740984;30;20092;-91
2021/10/01 02:47:37;;;;;;;0.85;0.50;;;;;;;19.47;54.11;101530.91;4741128;30;20054;-90
2021/10/01 02:50:13;;;;;;;0.60;0.43;;;;;;;19.46;54.15;101532.63;4740681;30;20035;-86
2021/10/01 02:52:47;;;;;;;1.10;0.45;;;;;;;19.46;54.37;101521.34;4754617;30;20028;-86
2021/10/01 02:55:18;;;;;;;1.13;0.57;;;;;;;19.46;54.25;101523.94;4754636;30;20035;-86
2021/10/01 02:57:57;;;;;;;0.70;0.40;;;;;;;19.45;54.30;101515.25;4754425;30;20039;-86
2021/10/01 03:00:22;;;;;;;0.60;0.43;;;;;;;19.46;54.46;101509.13;4754501;30;20039;-85
2021/10/01 03:02:51;;;;;;;0.88;0.47;;;;;;;19.45;54.30;101496.97;4754349;30;20040;-86
2021/10/01 03:05:18;;;;;;;0.65;0.50;;;;;;;19.45;54.38;101481.31;4770571;30;20036;-87
2021/10/01 03:07:45;;;;;;;1.00;0.50;;;;;;;19.45;54.17;101483.06;4754595;30;20035;-86
2021/10/01 03:10:12;;;;;;;0.70;0.50;;;;;;;19.45;54.37;101477.84;4754446;30;20038;-86
2021/10/01 03:12:39;;;;;;;1.13;0.57;;;;;;;19.45;54.52;101480.47;4740037;30;20027;-87
2021/10/01 03:15:06;;;;;;;0.82;0.45;;;;;;;19.45;54.22;101489.16;4740014;30;20110;-87
2021/10/01 03:17:32;;;;;;;0.75;0.60;;;;;;;19.44;54.46;101479.56;4740362;30;20039;-85
2021/10/01 03:19:59;;;;;;;0.90;0.50;;;;;;;19.44;54.39;101479.56;4743295;30;20509;-86
2021/10/01 03:22:31;;;;;;;0.63;0.40;;;;;;;19.45;54.36;101472.63;4743396;30;20039;-90
2021/10/01 03:25:01;;;;;;;1.35;0.50;;;;;;;19.44;54.47;101468.28;4730885;30;20042;-90
2021/10/01 03:34:12;;;;;;;1.15;0.50;;;;;;;19.45;54.33;101464.81;4776536;30;20473;-90
2021/10/01 03:36:37;;;;;;;0.77;0.50;;;;;;;19.43;54.19;101467.41;4758566;30;20031;-90
2021/10/01 03:39:03;;;;;;;0.80;0.40;;;;;;;19.44;54.53;101470.88;4743788;30;20036;-91
2021/10/01 03:41:30;;;;;;;0.82;0.47;;;;;;;19.44;54.40;101474.34;4730959;30;20521;-90
2021/10/01 03:43:56;;;;;;;1.58;0.47;;;;;;;19.44;54.31;101483.94;4760333;30;20028;-91
2021/10/01 03:46:23;;;;;;;1.40;0.50;;;;;;;19.43;54.47;101482.22;4744868;30;20058;-91
2021/10/01 03:48:48;;;;;;;1.23;0.50;;;;;;;19.43;54.42;101477.00;4758338;30;20032;-91
2021/10/01 03:51:14;;;;;;;0.88;0.50;;;;;;;19.41;54.45;101473.53;4729219;30;20031;-90
2021/10/01 03:53:40;;;;;;;0.85;0.40;;;;;;;19.42;54.50;101470.88;4758212;30;20042;-91
2021/10/01 03:56:10;;;;;;;0.98;0.45;;;;;;;19.41;54.47;101458.72;4751449;30;20035;-89
2021/10/01 03:58:36;;;;;;;1.00;0.50;;;;;;;19.41;54.32;101458.72;4767926;30;20027;-89
2021/10/01 04:01:01;;;;;;;0.90;0.40;;;;;;;19.42;54.41;101465.66;4747151;30;20085;-90
2021/10/01 04:03:26;;;;;;;1.05;0.50;;;;;;;19.41;54.37;101466.56;4744477;30;20051;-91
2021/10/01 04:05:53;;;;;;;1.65;0.60;;;;;;;19.42;54.31;101464.81;4729071;30;20122;-90
2021/10/01 04:08:18;;;;;;;0.82;0.50;;;;;;;19.41;54.28;101453.50;4743780;30;20480;-87
2021/10/01 04:10:44;;;;;;;0.63;0.50;;;;;;;19.41;54.48;101452.66;4758361;30;20032;-87
2021/10/01 04:13:09;;;;;;;1.10;0.60;;;;;;;19.42;54.39;101464.81;4749213;30;20123;-91
2021/10/01 04:15:35;;;;;;;1.35;0.40;;;;;;;19.41;54.52;101458.72;4748615;30;20036;-89
2021/10/01 04:18:01;;;;;;;0.60;0.38;;;;;;;19.42;54.59;101470.88;4765497;30;20084;-87
2021/10/01 04:20:27;;;;;;;1.13;0.47;;;;;;;19.41;54.14;101463.94;4765333;30;20027;-89
2021/10/01 04:22:52;;;;;;;2.00;0.60;;;;;;;19.41;54.45;101469.16;4747536;30;20048;-89
2021/10/01 04:25:18;;;;;;;0.95;0.50;;;;;;;19.42;54.79;101462.19;4759892;30;20024;-88
2021/10/01 04:27:43;;;;;;;0.60;0.40;;;;;;;19.42;54.35;101470.03;4759503;30;20050;-88
2021/10/01 04:30:09;;;;;;;1.27;0.45;;;;;;;19.40;54.55;101459.63;4743867;30;20454;-88
2021/10/01 04:32:37;;;;;;;0.93;0.50;;;;;;;19.40;54.52;101464.84;4758668;30;20028;-89
2021/10/01 04:35:11;;;;;;;1.77;0.50;;;;;;;19.40;54.38;101469.16;4758045;30;20064;-89
2021/10/01 04:37:37;;;;;;;1.50;0.50;;;;;;;19.39;54.53;101460.47;4744016;30;20044;-89
2021/10/01 04:40:03;;;;;;;0.90;0.50;;;;;;;19.40;54.56;101458.72;4728767;30;20556;-89
2021/10/01 04:42:28;;;;;;;0.90;0.40;;;;;;;19.37;54.55;101445.72;4774374;30;20024;-89
2021/10/01 04:44:54;;;;;;;0.98;0.40;;;;;;;19.39;54.55;101454.41;4748316;29;20036;-91
2021/10/01 04:47:20;;;;;;;1.85;0.40;;;;;;;19.38;54.38;101448.31;4750604;30;20040;-91
2021/10/01 04:49:45;;;;;;;0.60;0.50;;;;;;;19.37;54.52;101437.88;4744627;30;20414;-89
2021/10/01 04:52:10;;;;;;;1.08;0.40;;;;;;;19.39;54.34;101441.34;4744150;30;20151;-89
2021/10/01 04:54:36;;;;;;;1.50;0.60;;;;;;;19.38;54.13;101445.72;4743503;30;20480;-90
2021/10/01 04:57:01;;;;;;;2.55;0.50;;;;;;;19.37;54.63;101437.88;4743370;30;20075;-89
2021/10/01 04:59:27;;;;;;;0.73;0.40;;;;;;;19.36;54.68;101434.41;4743247;30;20040;-89
2021/10/01 05:01:52;;;;;;;0.80;0.30;;;;;;;19.35;54.79;101435.28;4743705;30;20040;-89
2021/10/01 05:04:18;;;;;;;1.10;0.50;;;;;;;19.37;54.46;101441.34;4743530;30;20055;-89
2021/10/01 05:06:43;;;;;;;1.13;0.43;;;;;;;19.35;54.47;101440.50;4743086;30;20511;-89
2021/10/01 05:09:08;;;;;;;0.63;0.50;;;;;;;19.36;54.48;101438.75;4742916;30;20036;-92
2021/10/01 05:11:34;;;;;;;0.88;0.50;;;;;;;19.35;54.54;101434.41;4742289;30;20043;-86
2021/10/01 05:14:00;;;;;;;0.93;0.52;;;;;;;19.36;54.64;101434.41;4741267;30;20499;-87
2021/10/01 05:16:26;;;;;;;0.30;0.30;;;;;;;19.34;54.63;101433.56;4741221;30;20042;-85
2021/10/01 05:18:51;;;;;;;1.17;0.40;;;;;;;19.41;54.59;101431.75;4757111;30;20130;-86
2021/10/01 05:21:16;;;;;;;2.03;0.63;;;;;;;19.42;54.55;101428.25;4726523;30;20503;-84
2021/10/01 05:23:42;;;;;;;2.05;1.00;;;;;;;19.42;54.49;101420.44;4740889;30;20040;-83
2021/10/01 05:26:07;;;;;;;4.22;0.80;;;;;;;19.42;54.57;101426.50;4755797;30;20480;-84
2021/10/01 05:28:33;;;;;;;5.28;1.10;;;;;;;19.40;54.43;101420.47;4755509;30;20043;-84
2021/10/01 05:30:58;;;;;;;1.30;0.70;;;;;;;19.38;54.77;101419.63;4755810;30;20040;-85
2021/10/01 05:33:24;;;;;;;2.80;1.10;;;;;;;19.38;54.59;101424.84;4756095;30;20027;-85
2021/10/01 05:35:49;;;;;;;4.47;0.93;;;;;;;19.38;54.65;101426.56;4726216;30;20035;-85
2021/10/01 05:38:15;;;;;;;2.88;1.00;;;;;;;19.37;54.65;101425.69;4755659;30;20052;-85
2021/10/01 05:40:41;;;;;;;1.95;0.90;;;;;;;19.35;54.69;101417.00;4754803;30;20142;-87
2021/10/01 05:43:07;;;;;;;3.80;1.20;;;;;;;19.36;54.65;101415.25;4756040;30;20177;-86
2021/10/01 05:45:33;;;;;;;2.13;0.88;;;;;;;19.39;54.44;101423.94;4755389;30;20134;-85
2021/10/01 05:48:00;;;;;;;6.38;1.02;;;;;;;19.42;54.66;101410.84;4755832;30;20042;-85
2021/10/01 05:50:29;;;;;;;3.65;1.20;;;;;;;19.44;54.32;101411.72;4755170;30;20036;-86
2021/10/01 05:52:57;;;;;;;7.93;1.15;;;;;;;19.46;54.28;101412.56;4755008;30;20056;-85
2021/10/01 05:55:23;;;;;;;4.00;1.20;;;;;;;19.47;54.29;101406.47;4741289;30;20036;-86
2021/10/01 05:57:49;;;;;;;2.85;1.00;;;;;;;19.48;54.26;101407.34;4740348;30;20036;-85
2021/10/01 06:00:16;;;;;;;7.05;1.55;;;;;;;19.49;54.44;101407.34;4755256;30;20063;-85
2021/10/01 06:02:43;;;;;;;5.25;1.40;;;;;;;19.51;54.37;101404.69;4740273;30;20032;-85
2021/10/01 06:05:10;;;;;;;2.97;1.02;;;;;;;19.51;54.37;101391.63;4754957;30;20042;-81
2021/10/01 06:07:36;;;;;;;2.53;1.15;;;;;;;19.52;54.18;101401.22;4754722;30;20031;-83
2021/10/01 06:10:03;;;;;;;2.42;1.00;;;;;;;19.52;54.02;101396.84;4770985;30;20105;-82
2021/10/01 06:12:28;;;;;;;2.83;1.13;;;;;;;19.53;54.15;101400.31;4754884;30;20031;-82
2021/10/01 06:14:54;;;;;;;3.83;1.35;;;;;;;19.52;54.31;101399.47;4740178;30;20047;-81
2021/10/01 06:17:19;;;;;;;3.15;1.10;;;;;;;19.51;54.05;101402.06;4740161;30;20563;-83
2021/10/01 06:19:45;;;;;;;3.08;1.10;;;;;;;19.51;54.21;101397.75;4755021;30;20039;-81
2021/10/01 06:22:12;;;;;;;2.72;1.23;;;;;;;19.53;54.29;101402.94;4740884;30;20046;-81
2021/10/01 06:24:37;;;;;;;2.83;1.05;;;;;;;19.53;54.27;101389.88;4755865;30;20050;-83
2021/10/01 06:27:04;;;;;;;2.78;1.15;;;;;;;19.52;54.03;101391.63;4741126;30;20039;-84
2021/10/01 06:29:30;;;;;;;3.75;1.23;;;;;;;19.54;54.02;101399.47;4740251;30;20071;-83
2021/10/01 06:31:55;;;;;;;2.88;1.08;;;;;;;19.54;54.14;101391.63;4754725;30;20036;-82
2021/10/01 06:34:21;;;;;;;2.05;1.02;;;;;;;19.52;54.16;101401.22;4739930;30;20046;-82
2021/10/01 06:36:46;;;;;;;1.75;0.90;;;;;;;19.53;54.13;101403.81;4739815;30;20089;-81
2021/10/01 06:39:12;;;;;;;4.25;1.17;;;;;;;19.53;54.23;101405.53;4739780;30;20040;-82
2021/10/01 06:41:40;;;;;;;2.33;0.98;;;;;;;19.54;54.13;101399.47;4754366;30;20048;-81
2021/10/01 06:44:07;;;;;;;3.17;1.23;;;;;;;19.55;54.09;101415.97;4740254;30;20450;-84
2021/10/01 08:18:21;;;;;;;4.30;1.00;;;;;;;19.87;53.17;101372.19;4773545;30;20039;-87
2021/10/01 08:21:26;;;;;;;4.68;1.02;;;;;;;19.74;53.24;101360.13;4741998;30;20119;-85
2021/10/01 08:23:56;;;;;;;2.95;1.08;;;;;;;19.73;53.25;101367.13;4756415;30;20039;-85
2021/10/01 08:26:27;;;;;;;4.50;1.10;;;;;;;19.73;53.33;101358.41;4756556;30;20032;-87
2021/10/01 08:28:53;;;;;;;3.38;0.88;;;;;;;19.73;53.39;101361.88;4756752;30;20040;-86
2021/10/01 08:31:19;;;;;;;2.25;0.88;;;;;;;19.74;53.32;101365.34;4741991;30;20503;-87
2021/10/01 08:33:46;;;;;;;2.30;0.80;;;;;;;19.75;53.25;101367.09;4756355;30;20040;-86
2021/10/01 08:36:12;;;;;;;2.00;0.90;;;;;;;19.71;53.42;101360.19;4756466;30;20093;-87
2021/10/01 08:38:38;;;;;;;1.58;0.65;;;;;;;19.72;53.42;101367.13;4741783;30;20166;-86
2021/10/01 08:41:04;;;;;;;3.45;1.10;;;;;;;19.73;53.29;101368.88;4756172;30;20060;-86
2021/10/01 08:43:31;;;;;;;2.90;0.98;;;;;;;19.72;53.33;101360.13;4756571;30;20081;-87
2021/10/01 08:45:57;;;;;;;2.30;1.00;;;;;;;19.73;53.30;101369.72;4756894;30;20471;-86
2021/10/01 08:48:23;;;;;;;2.42;0.90;;;;;;;19.74;53.10;101362.75;4772570;30;20046;-88
2021/10/01 08:50:48;;;;;;;2.10;0.80;;;;;;;19.75;53.14;101364.50;4741275;30;20039;-86
2021/10/01 08:53:14;;;;;;;2.78;0.80;;;;;;;19.75;53.26;101356.66;4756493;30;20046;-86
2021/10/01 08:55:46;;;;;;;2.22;1.00;;;;;;;19.76;53.35;101354.91;4756291;30;20034;-87
2021/10/01 08:58:12;;;;;;;2.22;0.93;;;;;;;19.79;53.36;101352.25;4757173;30;20044;-87
2021/10/01 09:00:37;;;;;;;2.33;0.80;;;;;;;19.80;53.20;101352.25;4772029;30;20027;-86
2021/10/01 09:03:03;;;;;;;1.52;0.70;;;;;;;19.83;52.99;101352.19;4756368;30;20036;-86
2021/10/01 09:05:28;;;;;;;1.45;0.57;;;;;;;19.87;52.90;101350.44;4741560;30;20042;-86
2021/10/01 09:07:53;;;;;;;3.05;0.88;;;;;;;19.89;53.13;101343.44;4772138;30;20035;-86
2021/10/01 09:10:19;;;;;;;2.75;0.80;;;;;;;19.88;52.99;101344.31;4726512;30;20031;-88
2021/10/01 09:12:53;;;;;;;1.83;0.73;;;;;;;19.86;53.04;101341.72;4726372;30;20079;-86
2021/10/01 09:15:19;;;;;;;1.45;0.70;;;;;;;19.85;52.99;101341.75;4770993;30;20064;-87
2021/10/01 09:17:50;;;;;;;2.92;0.90;;;;;;;19.86;53.14;101341.72;4755773;30;20118;-87
2021/10/01 09:20:16;;;;;;;2.40;0.80;;;;;;;19.89;52.92;101338.22;4726816;30;20027;-87
2021/10/01 09:22:41;;;;;;;1.05;0.65;;;;;;;19.88;52.94;101339.97;4740733;30;20039;-86
2021/10/01 09:25:19;;;;;;;1.83;0.73;;;;;;;19.84;53.00;101342.63;4740934;30;20373;-84
2021/10/01 09:27:46;;;;;;;1.88;0.80;;;;;;;19.81;53.17;101348.72;4771400;30;20426;-83
2021/10/01 09:30:13;;;;;;;5.07;0.73;;;;;;;19.79;53.26;101352.25;4755631;30;20043;-81
2021/10/01 09:32:40;;;;;;;1.27;0.70;;;;;;;19.78;53.21;101348.78;4740876;30;20035;-83
2021/10/01 09:35:15;;;;;;;1.27;0.60;;;;;;;19.78;53.42;101350.53;4740882;30;20035;-80
2021/10/01 09:37:41;;;;;;;1.50;0.70;;;;;;;19.76;53.38;101345.31;4755643;30;20039;-81
2021/10/01 09:40:09;;;;;;;2.00;0.90;;;;;;;19.76;53.21;101347.06;4740599;30;20115;-82
2021/10/01 09:42:47;;;;;;;1.85;0.70;;;;;;;19.76;53.32;101344.47;4755184;30;20059;-81
2021/10/01 09:45:14;;;;;;;1.38;0.70;;;;;;;19.76;53.12;101345.31;4756400;30;20039;-82
2021/10/01 09:47:44;;;;;;;2.40;1.00;;;;;;;19.76;53.25;101336.63;4758183;30;20032;-82
2021/10/01 09:50:19;;;;;;;2.05;0.70;;;;;;;19.76;53.21;101334.00;4759047;30;20031;-81
2021/10/01 09:52:46;;;;;;;2.30;0.70;;;;;;;19.76;53.34;101334.88;4761094;30;20061;-82
2021/10/01 09:55:17;;;;;;;2.15;0.75;;;;;;;19.76;53.24;101329.66;4772504;30;20028;-81
2021/10/01 09:58:09;;;;;;;1.50;0.70;;;;;;;19.75;53.51;101327.94;4755663;30;20060;-83
2021/10/01 10:00:39;;;;;;;2.00;0.70;;;;;;;19.75;53.40;101330.53;4755521;30;20035;-81
2021/10/01 10:03:12;;;;;;;1.90;0.77;;;;;;;19.75;53.29;101327.03;4755957;30;20130;-85
2021/10/01 10:06:06;;;;;;;1.33;0.55;;;;;;;19.72;53.37;101326.19;4771375;30;20434;-83
2021/10/01 10:08:37;;;;;;;1.95;0.80;;;;;;;19.72;53.30;101320.97;4755146;30;20032;-84
2021/10/01 10:11:09;;;;;;;1.95;0.70;;;;;;;19.73;53.58;101319.25;4759296;30;20032;-83
2021/10/01 10:13:40;;;;;;;2.20;0.80;;;;;;;19.74;53.52;101313.13;4761272;30;20028;-84
2021/10/01 10:16:08;;;;;;;1.35;0.73;;;;;;;19.73;53.56;101314.03;4756620;30;20032;-84
2021/10/01 10:18:34;;;;;;;1.48;0.70;;;;;;;19.71;53.53;101311.44;4740961;30;20048;-84
2021/10/01 10:21:00;;;;;;;3.40;0.73;;;;;;;19.72;53.41;101320.97;4755186;30;20035;-82
2021/10/01 10:23:25;;;;;;;1.95;0.60;;;;;;;19.71;53.59;101319.25;4740196;30;20432;-82
2021/10/01 10:25:50;;;;;;;2.35;0.60;;;;;;;19.71;53.53;101321.88;4740337;30;20069;-84
2021/10/01 10:28:16;;;;;;;1.95;0.80;;;;;;;19.72;53.46;101323.59;4754408;30;20035;-80
2021/10/01 10:30:41;;;;;;;1.35;0.75;;;;;;;19.72;53.26;101317.50;4754695;30;20067;-86
2021/10/01 10:33:52;;;;;;;1.77;0.60;;;;;;;19.72;53.36;101320.13;4739888;30;20028;-85
2021/10/01 10:36:26;;;;;;;1.58;0.80;;;;;;;19.72;53.48;101305.31;4750259;30;20551;-84
2021/10/01 10:38:57;;;;;;;0.82;0.50;;;;;;;19.72;53.26;101289.63;4754593;30;20080;-84
2021/10/01 10:41:28;;;;;;;2.05;0.75;;;;;;;19.73;53.46;101286.16;4754451;30;20182;-84
2021/10/01 10:43:54;;;;;;;1.30;0.70;;;;;;;19.73;53.52;101307.06;4754547;30;20081;-84
2021/10/01 10:46:35;;;;;;;3.17;0.80;;;;;;;19.75;53.45;101303.53;4770502;30;20055;-85
2021/10/01 10:49:24;;;;;;;2.72;0.68;;;;;;;19.75;53.60;101314.00;4754300;30;20027;-85
2021/10/01 10:52:13;;;;;;;2.10;0.80;;;;;;;19.67;53.30;101311.44;4770547;30;20484;-83
2021/10/01 10:54:50;;;;;;;3.30;0.70;;;;;;;19.61;53.29;101319.34;4770345;30;20055;-83
2021/10/01 10:57:15;;;;;;;1.90;1.02;;;;;;;19.60;53.48;101315.88;4754153;30;20036;-84
2021/10/01 10:59:45;;;;;;;2.28;0.82;;;;;;;19.60;53.80;101309.75;4770435;30;20114;-85
2021/10/01 11:02:36;;;;;;;4.00;1.05;;;;;;;19.58;53.73;101309.78;4754310;30;20039;-84
2021/10/01 11:05:27;;;;;;;4.55;0.90;;;;;;;19.59;53.59;101316.72;4754439;30;20028;-84
2021/10/01 11:07:58;;;;;;;1.85;0.80;;;;;;;19.61;53.55;101312.34;4754371;30;20036;-84
2021/10/01 11:10:43;;;;;;;1.60;0.82;;;;;;;19.62;53.64;101316.72;4739630;30;20468;-85
2021/10/01 11:13:23;;;;;;;4.32;0.80;;;;;;;19.63;53.70;101317.56;4770482;30;20066;-85
2021/10/01 11:16:12;;;;;;;3.80;0.88;;;;;;;19.63;53.68;101325.41;4770435;30;20543;-84
2021/10/01 11:18:44;;;;;;;4.38;0.75;;;;;;;19.63;53.70;101309.75;4755549;30;20066;-85
2021/10/01 11:21:28;;;;;;;5.10;0.70;;;;;;;19.61;53.66;101301.91;4755453;30;20204;-84
2021/10/01 11:23:59;;;;;;;6.15;1.25;;;;;;;19.61;53.60;101301.06;4754860;30;20063;-84
2021/10/01 11:26:31;;;;;;;1.65;0.80;;;;;;;19.62;53.66;101306.28;4755007;30;20028;-84
2021/10/01 11:28:58;;;;;;;2.28;0.82;;;;;;;19.61;53.90;101308.91;4770380;30;20120;-84
2021/10/01 11:31:33;;;;;;;1.50;0.70;;;;;;;19.62;53.98;101302.78;4739517;30;20027;-84
2021/10/01 11:33:59;;;;;;;3.10;0.85;;;;;;;19.64;53.83;101306.22;4770421;30;20059;-85
2021/10/01 11:36:25;;;;;;;1.35;0.60;;;;;;;19.65;53.72;101289.72;4762457;30;20040;-85
2021/10/01 11:39:02;;;;;;;2.60;0.80;;;;;;;19.68;53.69;101293.13;4781114;30;20035;-84
2021/10/01 11:41:28;;;;;;;1.83;0.73;;;;;;;19.68;53.77;101287.91;4782138;30;20048;-87
2021/10/01 11:43:56;;;;;;;1.40;0.63;;;;;;;19.69;53.44;101287.06;4782153;30;20065;-86
2021/10/01 11:46:34;;;;;;;2.03;0.75;;;;;;;19.70;53.64;101295.75;4762413;30;20040;-86
2021/10/01 11:49:03;;;;;;;1.58;0.60;;;;;;;19.68;53.73;101289.66;4763263;30;20122;-85
2021/10/01 11:51:30;;;;;;;1.20;0.60;;;;;;;19.67;53.68;101285.34;4774833;30;20032;-85
2021/10/01 11:54:14;;;;;;;1.15;0.63;;;;;;;19.69;53.76;101283.56;4774402;30;20122;-85
2021/10/01 11:56:41;;;;;;;2.10;0.77;;;;;;;19.71;53.73;101281.84;4757552;30;20028;-84
2021/10/01 11:59:07;;;;;;;1.70;0.70;;;;;;;19.71;53.77;101280.09;4743955;30;20032;-83
2021/10/01 12:01:33;;;;;;;1.73;0.80;;;;;;;19.73;53.39;101277.47;4757680;30;20040;-85
2021/10/01 12:03:59;;;;;;;1.75;0.70;;;;;;;19.73;53.83;101272.25;4773177;30;20166;-85
2021/10/01 12:06:29;;;;;;;2.60;0.60;;;;;;;19.74;53.53;101276.56;4741971;30;20048;-79
2021/10/01 12:09:01;;;;;;;1.25;0.70;;;;;;;19.71;53.77;101269.66;4772958;30;20161;-80
2021/10/01 12:11:35;;;;;;;1.00;0.52;;;;;;;19.70;53.72;101270.50;4756647;30;20049;-82
2021/10/01 12:14:21;;;;;;;1.55;0.60;;;;;;;19.70;53.89;101254.00;4756713;30;20063;-79
2021/10/01 12:16:59;;;;;;;1.60;0.70;;;;;;;19.72;53.85;101267.88;4756493;30;20126;-79
2021/10/01 12:19:26;;;;;;;1.23;0.68;;;;;;;19.75;53.75;101262.66;4772628;30;20063;-79
2021/10/01 12:22:15;;;;;;;0.93;0.63;;;;;;;19.80;53.59;101259.97;4727448;30;20036;-79
2021/10/01 12:24:53;;;;;;;1.35;0.60;;;;;;;19.81;53.76;101254.72;4774036;30;20434;-81
2021/10/01 12:27:30;;;;;;;1.42;0.75;;;;;;;19.80;53.55;101254.75;4758117;30;20038;-82
2021/10/01 12:29:56;;;;;;;1.70;0.80;;;;;;;19.80;53.54;101258.22;4757256;30;20024;-80
2021/10/01 12:32:22;;;;;;;1.05;0.50;;;;;;;19.78;53.67;101254.75;4742164;30;20042;-80
2021/10/01 12:34:57;;;;;;;0.82;0.45;;;;;;;19.76;53.92;101258.28;4756519;30;20031;-79
2021/10/01 12:37:25;;;;;;;1.70;0.70;;;;;;;19.76;53.85;101253.06;4756427;30;20458;-79
2021/10/01 12:39:54;;;;;;;0.88;0.52;;;;;;;19.75;53.80;101261.75;4772231;30;20411;-79
2021/10/01 12:42:29;;;;;;;2.10;0.60;;;;;;;19.76;53.68;101253.06;4772260;30;20032;-79
2021/10/01 12:44:56;;;;;;;1.55;0.65;;;;;;;19.75;53.99;101252.22;4756413;30;20036;-82
2021/10/01 12:47:21;;;;;;;1.35;0.60;;;;;;;19.75;53.84;101253.94;4756909;30;20122;-79
2021/10/01 12:50:11;;;;;;;1.70;0.70;;;;;;;19.74;53.80;101253.06;4755733;30;20079;-79
2021/10/01 12:52:38;;;;;;;1.08;0.63;;;;;;;19.72;53.86;101250.47;4772069;30;20407;-79
2021/10/01 12:55:13;;;;;;;1.45;0.50;;;;;;;19.72;54.01;101258.31;4741443;30;20554;-79
2021/10/01 12:57:40;;;;;;;0.93;0.50;;;;;;;19.72;53.87;101262.66;4756214;30;20058;-79
2021/10/01 13:00:10;;;;;;;1.77;0.50;;;;;;;19.71;53.82;101258.34;4755930;30;20036;-81
2021/10/01 13:02:45;;;;;;;1.15;0.60;;;;;;;19.71;53.92;101263.56;4755774;30;20514;-79
2021/10/01 13:05:14;;;;;;;1.23;0.70;;;;;;;19.70;54.05;101256.59;4755818;30;20035;-79
2021/10/01 13:07:56;;;;;;;0.98;0.52;;;;;;;19.69;53.98;101258.34;4755799;30;20031;-79
2021/10/01 13:10:49;;;;;;;1.00;0.70;;;;;;;19.69;54.10;101255.75;4771952;30;20050;-79
2021/10/01 13:13:41;;;;;;;2.38;0.50;;;;;;;19.69;54.03;101258.34;4755701;30;20081;-79
2021/10/01 13:16:11;;;;;;;2.47;0.50;;;;;;;19.68;53.99;101253.09;4767417;30;20043;-79
2021/10/01 13:18:39;;;;;;;2.10;0.50;;;;;;;19.68;54.03;101247.88;4756484;30;20039;-79
2021/10/01 13:21:09;;;;;;;1.08;0.52;;;;;;;19.68;54.49;101250.50;4741031;30;20504;-79
2021/10/01 13:23:44;;;;;;;1.20;0.60;;;;;;;19.69;54.14;101252.25;4755593;30;20381;-79
2021/10/01 13:26:15;;;;;;;1.02;0.50;;;;;;;19.68;54.08;101247.88;4755433;30;20122;-79
2021/10/01 13:28:43;;;;;;;0.60;0.50;;;;;;;19.67;54.47;101241.81;4755431;30;20039;-79
2021/10/01 13:31:09;;;;;;;1.25;0.50;;;;;;;19.69;54.25;101252.25;4740814;30;20407;-79